KWJF/WJF METAR and TAF weather

Enter ICAO airport designator
Station Type Date Time Source
KWJF METAR 2019/06/17 12:56 UTC NOAA

KWJF 171256Z AUTO 27007KT 10SM CLR 17/10 A2984 RMK AO2 SLP091 T01670100


Station Type Date Time Source
KWJF Decoded METAR 2019/06/17 12:56 UTC NOAA

LANCASTER FOX AIRFIELD, CA, United States (KWJF) 34-44N 118-13W
Jun 17, 2019 - 08:56 AM EDT / 2019.06.17 1256 UTC
Wind: from the W (270 degrees) at 8 MPH (7 KT):0
Visibility: 10 mile(s):0
Sky conditions: clear
Temperature: 62.1 F (16.7 C)
Dew Point: 50.0 F (10.0 C)
Relative Humidity: 64%
Pressure (altimeter): 29.84 in. Hg (1010 hPa)
ob: KWJF 171256Z AUTO 27007KT 10SM CLR 17/10 A2984 RMK AO2 SLP091 T01670100
cycle: 13

Station Type Date Time Source
KWJF TAF 2019/06/17 12:33 UTC NOAA

TAF KWJF 171131Z 1712/1812 VRB05KT P6SM SKC
FM171800 24014KT P6SM SKC
FM172200 24015G25KT P6SM SKC
FM180400 24015KT P6SM SKC
FM180900 26008KT P6SM SKC

Example: see airport list